Kezdőlap
METAR-TAF:

METAR-TAF

Repülőterek :

Maradi, Niger

földrajzi szélesség: 13-28N, földrajzi hosszúság: 007-05E, magasság: 372 m

Jelenlegi meteorológiai megfigyelések

A jelentés 44 perccel ezelõtt készült, 13:00 UTC
Keleti szél 16 kt
Hőmérséklet 30°C
Páratartalom 6%
Légköri nyomás 1014 hPa
Látótávolság 10 km, vagy több
felhőtlen 1500 m magasságban, és nincs gomolyfelhõ

METAR: DRRM 151300Z 08016KT CAVOK 30/M11 Q1014

Idő: 14:44 (13:44 UTC)


TAF: hiányzik

Meteorológiai megfigyelések és előrejelzések több, mint 4000 repülőtéren (METAR és TAF jelentéseket).

A térképen piros és sárga pontok jelzik az elérhető meteorológiai állomásokat.

Mozgassa az egeret a pont fölött, hogy megjelenjen az állomás neve.

Azután kattintson az időjárási megfigyelések és előrejelzések megtekintéséhez.

A térkép megváltoztatása: kattintson a fekete keresztel jelölt zöld gombra ráközelítéshez, a vonallal jelölt zöld gombra távolításhoz, vagy a zöld nyilakra a szomszédos térképek eléréséhez.


METAR-TAF: